sensor_id;sensor_type;location;lat;lon;timestamp;temperature;humidity
58582;DHT22;44361;51.476;5.700;2022-10-16T00:01:46;12.60;99.90
58582;DHT22;44361;51.476;5.700;2022-10-16T00:04:11;12.70;99.90
58582;DHT22;44361;51.476;5.700;2022-10-16T00:06:37;12.60;99.90
58582;DHT22;44361;51.476;5.700;2022-10-16T00:09:04;12.60;99.90
58582;DHT22;44361;51.476;5.700;2022-10-16T00:11:34;12.60;99.90
58582;DHT22;44361;51.476;5.700;2022-10-16T00:14:04;12.60;99.90
58582;DHT22;44361;51.476;5.700;2022-10-16T00:16:31;12.60;99.90
58582;DHT22;44361;51.476;5.700;2022-10-16T00:18:57;12.60;99.90
58582;DHT22;44361;51.476;5.700;2022-10-16T00:21:26;12.60;99.90
58582;DHT22;44361;51.476;5.700;2022-10-16T00:23:57;12.60;99.90
58582;DHT22;44361;51.476;5.700;2022-10-16T00:26:25;12.60;99.90
58582;DHT22;44361;51.476;5.700;2022-10-16T00:28:51;12.60;99.90
58582;DHT22;44361;51.476;5.700;2022-10-16T00:31:18;12.50;99.90
58582;DHT22;44361;51.476;5.700;2022-10-16T00:33:45;12.50;99.90
58582;DHT22;44361;51.476;5.700;2022-10-16T00:36:13;12.50;99.90
58582;DHT22;44361;51.476;5.700;2022-10-16T00:38:39;12.50;99.90
58582;DHT22;44361;51.476;5.700;2022-10-16T00:41:06;12.40;99.90
58582;DHT22;44361;51.476;5.700;2022-10-16T00:46:22;12.20;99.90
58582;DHT22;44361;51.476;5.700;2022-10-16T00:49:03;12.20;99.90
58582;DHT22;44361;51.476;5.700;2022-10-16T00:51:36;12.10;99.90
58582;DHT22;44361;51.476;5.700;2022-10-16T00:54:06;12.10;99.90
58582;DHT22;44361;51.476;5.700;2022-10-16T00:56:33;12.00;99.90
58582;DHT22;44361;51.476;5.700;2022-10-16T00:59:00;12.00;99.90
58582;DHT22;44361;51.476;5.700;2022-10-16T01:01:26;12.00;99.90
58582;DHT22;44361;51.476;5.700;2022-10-16T01:03:52;12.00;99.90
58582;DHT22;44361;51.476;5.700;2022-10-16T01:06:43;12.00;99.90
58582;DHT22;44361;51.476;5.700;2022-10-16T01:09:19;12.00;99.90
58582;DHT22;44361;51.476;5.700;2022-10-16T01:11:49;12.00;99.90
58582;DHT22;44361;51.476;5.700;2022-10-16T01:14:30;11.90;99.90
58582;DHT22;44361;51.476;5.700;2022-10-16T01:17:19;11.90;99.90
58582;DHT22;44361;51.476;5.700;2022-10-16T01:20:08;11.90;99.90
58582;DHT22;44361;51.476;5.700;2022-10-16T01:23:01;11.90;99.90
58582;DHT22;44361;51.476;5.700;2022-10-16T01:25:46;11.80;99.90
58582;DHT22;44361;51.476;5.700;2022-10-16T01:28:14;11.80;99.90
58582;DHT22;44361;51.476;5.700;2022-10-16T01:30:42;11.80;99.90
58582;DHT22;44361;51.476;5.700;2022-10-16T01:33:23;11.80;99.90
58582;DHT22;44361;51.476;5.700;2022-10-16T01:35:56;11.80;99.90
58582;DHT22;44361;51.476;5.700;2022-10-16T01:38:34;11.80;99.90
58582;DHT22;44361;51.476;5.700;2022-10-16T01:41:13;11.80;99.90
58582;DHT22;44361;51.476;5.700;2022-10-16T01:43:46;11.70;99.90
58582;DHT22;44361;51.476;5.700;2022-10-16T01:46:16;11.70;99.90
58582;DHT22;44361;51.476;5.700;2022-10-16T01:48:43;11.70;99.90
58582;DHT22;44361;51.476;5.700;2022-10-16T01:51:12;11.80;99.90
58582;DHT22;44361;51.476;5.700;2022-10-16T01:53:39;11.80;99.90
58582;DHT22;44361;51.476;5.700;2022-10-16T01:56:09;11.80;99.90
58582;DHT22;44361;51.476;5.700;2022-10-16T01:58:41;11.90;99.90
58582;DHT22;44361;51.476;5.700;2022-10-16T02:01:08;11.80;99.90
58582;DHT22;44361;51.476;5.700;2022-10-16T02:03:37;11.90;99.90
58582;DHT22;44361;51.476;5.700;2022-10-16T02:06:05;11.80;99.90
58582;DHT22;44361;51.476;5.700;2022-10-16T02:08:33;11.90;99.90
58582;DHT22;44361;51.476;5.700;2022-10-16T02:10:59;11.90;99.90
58582;DHT22;44361;51.476;5.700;2022-10-16T02:13:33;11.90;99.90
58582;DHT22;44361;51.476;5.700;2022-10-16T02:15:59;12.10;99.90
58582;DHT22;44361;51.476;5.700;2022-10-16T02:18:26;12.10;99.90
58582;DHT22;44361;51.476;5.700;2022-10-16T02:21:00;12.10;99.90
58582;DHT22;44361;51.476;5.700;2022-10-16T02:23:42;12.10;99.90
58582;DHT22;44361;51.476;5.700;2022-10-16T02:26:15;12.10;99.90
58582;DHT22;44361;51.476;5.700;2022-10-16T02:28:47;12.00;99.90
58582;DHT22;44361;51.476;5.700;2022-10-16T02:31:18;12.00;99.90
58582;DHT22;44361;51.476;5.700;2022-10-16T02:33:45;11.90;99.90
58582;DHT22;44361;51.476;5.700;2022-10-16T02:36:11;11.90;99.90
58582;DHT22;44361;51.476;5.700;2022-10-16T02:38:38;11.80;99.90
58582;DHT22;44361;51.476;5.700;2022-10-16T02:41:05;11.80;99.90
58582;DHT22;44361;51.476;5.700;2022-10-16T02:43:31;11.80;99.90
58582;DHT22;44361;51.476;5.700;2022-10-16T02:45:57;11.80;99.90
58582;DHT22;44361;51.476;5.700;2022-10-16T02:48:22;11.80;99.90
58582;DHT22;44361;51.476;5.700;2022-10-16T02:50:48;11.70;99.90
58582;DHT22;44361;51.476;5.700;2022-10-16T02:53:13;11.80;99.90
58582;DHT22;44361;51.476;5.700;2022-10-16T02:55:39;11.70;99.90
58582;DHT22;44361;51.476;5.700;2022-10-16T02:58:04;11.70;99.90
58582;DHT22;44361;51.476;5.700;2022-10-16T03:00:30;11.70;99.90
58582;DHT22;44361;51.476;5.700;2022-10-16T03:02:55;11.70;99.90
58582;DHT22;44361;51.476;5.700;2022-10-16T03:05:21;11.70;99.90
58582;DHT22;44361;51.476;5.700;2022-10-16T03:07:47;11.60;99.90
58582;DHT22;44361;51.476;5.700;2022-10-16T03:10:12;11.50;99.90
58582;DHT22;44361;51.476;5.700;2022-10-16T03:12:38;11.60;99.90
58582;DHT22;44361;51.476;5.700;2022-10-16T03:15:04;11.50;99.90
58582;DHT22;44361;51.476;5.700;2022-10-16T03:17:29;11.60;99.90
58582;DHT22;44361;51.476;5.700;2022-10-16T03:19:56;11.60;99.90
58582;DHT22;44361;51.476;5.700;2022-10-16T03:22:22;11.60;99.90
58582;DHT22;44361;51.476;5.700;2022-10-16T03:24:47;11.60;99.90
58582;DHT22;44361;51.476;5.700;2022-10-16T03:27:13;11.60;99.90
58582;DHT22;44361;51.476;5.700;2022-10-16T03:29:38;11.70;99.90
58582;DHT22;44361;51.476;5.700;2022-10-16T03:32:04;11.60;99.90
58582;DHT22;44361;51.476;5.700;2022-10-16T03:34:29;11.70;99.90
58582;DHT22;44361;51.476;5.700;2022-10-16T03:36:55;11.60;99.90
58582;DHT22;44361;51.476;5.700;2022-10-16T03:39:21;11.70;99.90
58582;DHT22;44361;51.476;5.700;2022-10-16T03:41:46;11.70;99.90
58582;DHT22;44361;51.476;5.700;2022-10-16T03:44:13;11.70;99.90
58582;DHT22;44361;51.476;5.700;2022-10-16T03:46:39;11.70;99.90
58582;DHT22;44361;51.476;5.700;2022-10-16T03:49:04;11.70;99.90
58582;DHT22;44361;51.476;5.700;2022-10-16T03:51:30;11.70;99.90
58582;DHT22;44361;51.476;5.700;2022-10-16T03:53:56;11.70;99.90
58582;DHT22;44361;51.476;5.700;2022-10-16T03:56:22;11.80;99.90
58582;DHT22;44361;51.476;5.700;2022-10-16T03:58:47;11.80;99.90
58582;DHT22;44361;51.476;5.700;2022-10-16T04:01:13;11.70;99.90
58582;DHT22;44361;51.476;5.700;2022-10-16T04:03:39;11.70;99.90
58582;DHT22;44361;51.476;5.700;2022-10-16T04:06:04;11.70;99.90
58582;DHT22;44361;51.476;5.700;2022-10-16T04:08:30;11.80;99.90
58582;DHT22;44361;51.476;5.700;2022-10-16T04:10:55;11.80;99.90
58582;DHT22;44361;51.476;5.700;2022-10-16T04:13:21;11.80;99.90
58582;DHT22;44361;51.476;5.700;2022-10-16T04:15:47;11.80;99.90
58582;DHT22;44361;51.476;5.700;2022-10-16T04:18:12;11.80;99.90
58582;DHT22;44361;51.476;5.700;2022-10-16T04:20:38;11.80;99.90
58582;DHT22;44361;51.476;5.700;2022-10-16T04:23:03;11.80;99.90
58582;DHT22;44361;51.476;5.700;2022-10-16T04:25:30;11.80;99.90
58582;DHT22;44361;51.476;5.700;2022-10-16T04:27:55;11.90;99.90
58582;DHT22;44361;51.476;5.700;2022-10-16T04:30:22;11.80;99.90
58582;DHT22;44361;51.476;5.700;2022-10-16T04:32:49;11.90;99.90
58582;DHT22;44361;51.476;5.700;2022-10-16T04:35:15;11.90;99.90
58582;DHT22;44361;51.476;5.700;2022-10-16T04:37:41;11.90;99.90
58582;DHT22;44361;51.476;5.700;2022-10-16T04:40:07;12.00;99.90
58582;DHT22;44361;51.476;5.700;2022-10-16T04:42:32;12.00;99.90
58582;DHT22;44361;51.476;5.700;2022-10-16T04:44:58;12.00;99.90
58582;DHT22;44361;51.476;5.700;2022-10-16T04:47:23;12.00;99.90
58582;DHT22;44361;51.476;5.700;2022-10-16T04:49:49;11.90;99.90
58582;DHT22;44361;51.476;5.700;2022-10-16T04:52:14;12.00;99.90
58582;DHT22;44361;51.476;5.700;2022-10-16T04:54:40;12.00;99.90
58582;DHT22;44361;51.476;5.700;2022-10-16T04:57:06;12.00;99.90
58582;DHT22;44361;51.476;5.700;2022-10-16T04:59:31;11.90;99.90
58582;DHT22;44361;51.476;5.700;2022-10-16T05:01:57;11.90;99.90
58582;DHT22;44361;51.476;5.700;2022-10-16T05:04:22;11.90;99.90
58582;DHT22;44361;51.476;5.700;2022-10-16T05:06:48;11.90;99.90
58582;DHT22;44361;51.476;5.700;2022-10-16T05:09:14;11.90;99.90
58582;DHT22;44361;51.476;5.700;2022-10-16T05:11:40;11.90;99.90
58582;DHT22;44361;51.476;5.700;2022-10-16T05:14:05;11.90;99.90
58582;DHT22;44361;51.476;5.700;2022-10-16T05:16:31;11.90;99.90
58582;DHT22;44361;51.476;5.700;2022-10-16T05:18:56;11.90;99.90
58582;DHT22;44361;51.476;5.700;2022-10-16T05:21:22;11.90;99.90
58582;DHT22;44361;51.476;5.700;2022-10-16T05:23:48;11.90;99.90
58582;DHT22;44361;51.476;5.700;2022-10-16T05:26:14;11.90;99.90
58582;DHT22;44361;51.476;5.700;2022-10-16T05:28:39;11.90;99.90
58582;DHT22;44361;51.476;5.700;2022-10-16T05:31:06;11.90;99.90
58582;DHT22;44361;51.476;5.700;2022-10-16T05:33:32;11.90;99.90
58582;DHT22;44361;51.476;5.700;2022-10-16T05:36:04;11.80;99.90
58582;DHT22;44361;51.476;5.700;2022-10-16T05:38:30;11.80;99.90
58582;DHT22;44361;51.476;5.700;2022-10-16T05:40:56;11.70;99.90
58582;DHT22;44361;51.476;5.700;2022-10-16T05:43:22;11.80;99.90
58582;DHT22;44361;51.476;5.700;2022-10-16T05:46:08;11.80;99.90
58582;DHT22;44361;51.476;5.700;2022-10-16T05:48:33;11.70;99.90
58582;DHT22;44361;51.476;5.700;2022-10-16T05:51:06;11.70;99.90
58582;DHT22;44361;51.476;5.700;2022-10-16T05:53:34;11.70;99.90
58582;DHT22;44361;51.476;5.700;2022-10-16T05:56:00;11.70;99.90
58582;DHT22;44361;51.476;5.700;2022-10-16T05:58:34;11.70;99.90
58582;DHT22;44361;51.476;5.700;2022-10-16T06:01:19;11.70;99.90
58582;DHT22;44361;51.476;5.700;2022-10-16T06:03:46;11.70;99.90
58582;DHT22;44361;51.476;5.700;2022-10-16T06:06:13;11.70;99.90
58582;DHT22;44361;51.476;5.700;2022-10-16T06:08:40;11.70;99.90
58582;DHT22;44361;51.476;5.700;2022-10-16T06:11:09;11.70;99.90
58582;DHT22;44361;51.476;5.700;2022-10-16T06:13:35;11.70;99.90
58582;DHT22;44361;51.476;5.700;2022-10-16T06:16:02;11.70;99.90
58582;DHT22;44361;51.476;5.700;2022-10-16T06:18:29;11.60;99.90
58582;DHT22;44361;51.476;5.700;2022-10-16T06:20:56;11.50;99.90
58582;DHT22;44361;51.476;5.700;2022-10-16T06:23:22;11.50;99.90
58582;DHT22;44361;51.476;5.700;2022-10-16T06:25:47;11.70;99.90
58582;DHT22;44361;51.476;5.700;2022-10-16T06:28:14;11.60;99.90
58582;DHT22;44361;51.476;5.700;2022-10-16T06:30:40;11.70;99.90
58582;DHT22;44361;51.476;5.700;2022-10-16T06:33:06;11.70;99.90
58582;DHT22;44361;51.476;5.700;2022-10-16T06:35:31;11.70;99.90
58582;DHT22;44361;51.476;5.700;2022-10-16T06:37:57;11.70;99.90
58582;DHT22;44361;51.476;5.700;2022-10-16T06:40:23;11.70;99.90
58582;DHT22;44361;51.476;5.700;2022-10-16T06:42:49;11.70;99.90
58582;DHT22;44361;51.476;5.700;2022-10-16T06:45:15;11.70;99.90
58582;DHT22;44361;51.476;5.700;2022-10-16T06:47:41;11.80;99.90
58582;DHT22;44361;51.476;5.700;2022-10-16T06:50:07;11.80;99.90
58582;DHT22;44361;51.476;5.700;2022-10-16T06:52:33;11.80;99.90
58582;DHT22;44361;51.476;5.700;2022-10-16T06:54:59;11.80;99.90
58582;DHT22;44361;51.476;5.700;2022-10-16T06:57:25;11.80;99.90
58582;DHT22;44361;51.476;5.700;2022-10-16T06:59:51;11.80;99.90
58582;DHT22;44361;51.476;5.700;2022-10-16T07:02:16;11.90;99.90
58582;DHT22;44361;51.476;5.700;2022-10-16T07:04:42;11.90;99.90
58582;DHT22;44361;51.476;5.700;2022-10-16T07:07:07;12.00;99.90
58582;DHT22;44361;51.476;5.700;2022-10-16T07:09:33;12.10;99.90
58582;DHT22;44361;51.476;5.700;2022-10-16T07:11:58;12.20;99.90
58582;DHT22;44361;51.476;5.700;2022-10-16T07:14:24;12.30;99.90
58582;DHT22;44361;51.476;5.700;2022-10-16T07:16:50;12.30;99.90
58582;DHT22;44361;51.476;5.700;2022-10-16T07:19:15;12.40;99.90
58582;DHT22;44361;51.476;5.700;2022-10-16T07:21:43;12.40;99.90
58582;DHT22;44361;51.476;5.700;2022-10-16T07:24:14;12.50;99.90
58582;DHT22;44361;51.476;5.700;2022-10-16T07:26:41;12.60;99.90
58582;DHT22;44361;51.476;5.700;2022-10-16T07:29:12;12.70;99.90
58582;DHT22;44361;51.476;5.700;2022-10-16T07:31:38;12.70;99.90
58582;DHT22;44361;51.476;5.700;2022-10-16T07:34:05;12.70;99.90
58582;DHT22;44361;51.476;5.700;2022-10-16T07:36:30;12.80;99.90
58582;DHT22;44361;51.476;5.700;2022-10-16T07:38:56;12.90;99.90
58582;DHT22;44361;51.476;5.700;2022-10-16T07:41:21;13.00;99.90
58582;DHT22;44361;51.476;5.700;2022-10-16T07:43:53;13.00;99.90
58582;DHT22;44361;51.476;5.700;2022-10-16T07:46:21;13.10;99.90
58582;DHT22;44361;51.476;5.700;2022-10-16T07:48:47;13.20;99.90
58582;DHT22;44361;51.476;5.700;2022-10-16T07:51:18;13.30;99.90
58582;DHT22;44361;51.476;5.700;2022-10-16T07:53:44;13.40;99.90
58582;DHT22;44361;51.476;5.700;2022-10-16T07:56:10;13.40;99.90
58582;DHT22;44361;51.476;5.700;2022-10-16T07:58:37;13.50;99.90
58582;DHT22;44361;51.476;5.700;2022-10-16T08:01:04;13.70;99.90
58582;DHT22;44361;51.476;5.700;2022-10-16T08:03:30;13.80;99.90
58582;DHT22;44361;51.476;5.700;2022-10-16T08:05:57;13.80;99.90
58582;DHT22;44361;51.476;5.700;2022-10-16T08:08:22;13.90;99.90
58582;DHT22;44361;51.476;5.700;2022-10-16T08:10:48;14.00;99.90
58582;DHT22;44361;51.476;5.700;2022-10-16T08:13:13;14.10;99.90
58582;DHT22;44361;51.476;5.700;2022-10-16T08:15:41;14.20;99.90
58582;DHT22;44361;51.476;5.700;2022-10-16T08:18:06;14.30;99.90
58582;DHT22;44361;51.476;5.700;2022-10-16T08:20:32;14.30;99.90
58582;DHT22;44361;51.476;5.700;2022-10-16T08:22:59;14.40;99.90
58582;DHT22;44361;51.476;5.700;2022-10-16T08:25:25;14.40;99.90
58582;DHT22;44361;51.476;5.700;2022-10-16T08:27:51;14.50;99.90
58582;DHT22;44361;51.476;5.700;2022-10-16T08:30:18;14.60;99.90
58582;DHT22;44361;51.476;5.700;2022-10-16T08:32:44;14.70;99.90
58582;DHT22;44361;51.476;5.700;2022-10-16T08:35:11;14.80;99.90
58582;DHT22;44361;51.476;5.700;2022-10-16T08:37:37;14.80;99.90
58582;DHT22;44361;51.476;5.700;2022-10-16T08:40:04;14.90;99.90
58582;DHT22;44361;51.476;5.700;2022-10-16T08:48:00;15.00;99.90
58582;DHT22;44361;51.476;5.700;2022-10-16T08:50:32;14.90;99.90
58582;DHT22;44361;51.476;5.700;2022-10-16T08:53:04;15.10;99.90
58582;DHT22;44361;51.476;5.700;2022-10-16T08:58:01;15.10;99.90
58582;DHT22;44361;51.476;5.700;2022-10-16T09:00:27;15.10;99.90
58582;DHT22;44361;51.476;5.700;2022-10-16T09:03:03;15.20;99.90
58582;DHT22;44361;51.476;5.700;2022-10-16T09:08:25;15.30;99.90
58582;DHT22;44361;51.476;5.700;2022-10-16T09:11:00;15.40;99.90
58582;DHT22;44361;51.476;5.700;2022-10-16T09:13:50;15.50;99.90
58582;DHT22;44361;51.476;5.700;2022-10-16T09:16:27;15.50;99.90
58582;DHT22;44361;51.476;5.700;2022-10-16T09:19:09;15.60;99.90
58582;DHT22;44361;51.476;5.700;2022-10-16T09:21:46;15.70;99.90
58582;DHT22;44361;51.476;5.700;2022-10-16T09:24:18;15.80;99.90
58582;DHT22;44361;51.476;5.700;2022-10-16T09:26:45;15.90;99.90
58582;DHT22;44361;51.476;5.700;2022-10-16T09:29:15;15.90;99.90
58582;DHT22;44361;51.476;5.700;2022-10-16T09:31:42;16.00;99.90
58582;DHT22;44361;51.476;5.700;2022-10-16T09:34:31;16.10;99.90
58582;DHT22;44361;51.476;5.700;2022-10-16T09:36:59;16.20;99.90
58582;DHT22;44361;51.476;5.700;2022-10-16T09:39:26;16.30;99.90
58582;DHT22;44361;51.476;5.700;2022-10-16T09:41:52;16.30;99.90
58582;DHT22;44361;51.476;5.700;2022-10-16T09:44:29;16.50;99.90
58582;DHT22;44361;51.476;5.700;2022-10-16T09:47:10;16.70;99.90
58582;DHT22;44361;51.476;5.700;2022-10-16T09:49:37;16.70;99.90
58582;DHT22;44361;51.476;5.700;2022-10-16T09:52:13;16.80;99.90
58582;DHT22;44361;51.476;5.700;2022-10-16T09:54:50;16.90;99.90
58582;DHT22;44361;51.476;5.700;2022-10-16T09:57:15;17.00;99.90
58582;DHT22;44361;51.476;5.700;2022-10-16T09:59:55;17.10;99.90
58582;DHT22;44361;51.476;5.700;2022-10-16T10:02:37;17.40;99.90
58582;DHT22;44361;51.476;5.700;2022-10-16T10:05:05;17.20;99.90
58582;DHT22;44361;51.476;5.700;2022-10-16T10:07:37;17.10;99.90
58582;DHT22;44361;51.476;5.700;2022-10-16T10:10:05;17.00;99.90
58582;DHT22;44361;51.476;5.700;2022-10-16T10:12:32;17.10;99.90
58582;DHT22;44361;51.476;5.700;2022-10-16T10:15:18;17.10;99.90
58582;DHT22;44361;51.476;5.700;2022-10-16T10:17:54;16.90;99.90
58582;DHT22;44361;51.476;5.700;2022-10-16T10:20:34;17.10;99.90
58582;DHT22;44361;51.476;5.700;2022-10-16T10:23:22;17.60;99.90
58582;DHT22;44361;51.476;5.700;2022-10-16T10:31:17;18.10;99.90
58582;DHT22;44361;51.476;5.700;2022-10-16T10:34:17;18.00;99.90
58582;DHT22;44361;51.476;5.700;2022-10-16T10:36:52;18.00;99.90
58582;DHT22;44361;51.476;5.700;2022-10-16T10:39:32;18.30;99.90
58582;DHT22;44361;51.476;5.700;2022-10-16T10:42:21;18.60;99.90
58582;DHT22;44361;51.476;5.700;2022-10-16T10:45:02;18.70;99.90
58582;DHT22;44361;51.476;5.700;2022-10-16T10:50:11;18.70;99.90
58582;DHT22;44361;51.476;5.700;2022-10-16T10:52:41;18.60;99.90
58582;DHT22;44361;51.476;5.700;2022-10-16T10:58:08;18.60;99.90
58582;DHT22;44361;51.476;5.700;2022-10-16T11:00:58;18.60;99.90
58582;DHT22;44361;51.476;5.700;2022-10-16T11:06:42;17.80;99.90
58582;DHT22;44361;51.476;5.700;2022-10-16T11:09:18;17.70;99.90
58582;DHT22;44361;51.476;5.700;2022-10-16T11:11:49;17.70;99.90
58582;DHT22;44361;51.476;5.700;2022-10-16T11:14:21;17.60;99.90
58582;DHT22;44361;51.476;5.700;2022-10-16T11:16:56;17.50;99.90
58582;DHT22;44361;51.476;5.700;2022-10-16T11:22:18;17.00;99.90
58582;DHT22;44361;51.476;5.700;2022-10-16T11:24:46;17.00;99.90
58582;DHT22;44361;51.476;5.700;2022-10-16T11:27:17;17.00;99.90
58582;DHT22;44361;51.476;5.700;2022-10-16T11:29:52;17.20;99.90
58582;DHT22;44361;51.476;5.700;2022-10-16T11:32:24;17.60;99.90
58582;DHT22;44361;51.476;5.700;2022-10-16T11:34:55;17.80;99.90
58582;DHT22;44361;51.476;5.700;2022-10-16T11:37:36;17.80;99.90
58582;DHT22;44361;51.476;5.700;2022-10-16T11:40:47;17.80;99.90
58582;DHT22;44361;51.476;5.700;2022-10-16T11:43:32;18.00;99.90
58582;DHT22;44361;51.476;5.700;2022-10-16T11:46:07;18.00;99.90
58582;DHT22;44361;51.476;5.700;2022-10-16T11:49:25;18.00;99.90
58582;DHT22;44361;51.476;5.700;2022-10-16T11:51:40;18.20;99.90
58582;DHT22;44361;51.476;5.700;2022-10-16T11:54:21;18.60;99.90
58582;DHT22;44361;51.476;5.700;2022-10-16T11:56:49;19.00;99.90
58582;DHT22;44361;51.476;5.700;2022-10-16T11:59:44;19.40;99.90
58582;DHT22;44361;51.476;5.700;2022-10-16T12:05:35;19.80;99.90
58582;DHT22;44361;51.476;5.700;2022-10-16T12:10:29;19.90;99.90
58582;DHT22;44361;51.476;5.700;2022-10-16T12:12:57;20.00;99.90
58582;DHT22;44361;51.476;5.700;2022-10-16T12:15:32;20.00;99.90
58582;DHT22;44361;51.476;5.700;2022-10-16T12:17:58;19.90;99.90
58582;DHT22;44361;51.476;5.700;2022-10-16T12:23:04;19.90;99.90
58582;DHT22;44361;51.476;5.700;2022-10-16T12:25:39;20.00;99.90
58582;DHT22;44361;51.476;5.700;2022-10-16T12:30:41;19.70;99.70
58582;DHT22;44361;51.476;5.700;2022-10-16T12:33:22;19.70;99.90
58582;DHT22;44361;51.476;5.700;2022-10-16T12:35:48;19.70;99.90
58582;DHT22;44361;51.476;5.700;2022-10-16T12:40:55;19.40;99.90
58582;DHT22;44361;51.476;5.700;2022-10-16T12:48:39;19.00;99.90
58582;DHT22;44361;51.476;5.700;2022-10-16T12:51:20;18.90;99.90
58582;DHT22;44361;51.476;5.700;2022-10-16T12:54:31;18.90;99.90
58582;DHT22;44361;51.476;5.700;2022-10-16T13:08:05;18.50;99.90
58582;DHT22;44361;51.476;5.700;2022-10-16T13:16:14;18.60;99.90
58582;DHT22;44361;51.476;5.700;2022-10-16T13:19:06;18.80;99.90
58582;DHT22;44361;51.476;5.700;2022-10-16T13:21:41;19.00;99.90
58582;DHT22;44361;51.476;5.700;2022-10-16T13:24:19;19.00;99.90
58582;DHT22;44361;51.476;5.700;2022-10-16T13:27:24;19.20;99.90
58582;DHT22;44361;51.476;5.700;2022-10-16T13:29:46;19.30;99.90
58582;DHT22;44361;51.476;5.700;2022-10-16T13:32:17;19.40;99.90
58582;DHT22;44361;51.476;5.700;2022-10-16T13:34:46;19.50;99.90
58582;DHT22;44361;51.476;5.700;2022-10-16T13:37:18;19.40;99.90
58582;DHT22;44361;51.476;5.700;2022-10-16T13:39:45;19.30;99.90
58582;DHT22;44361;51.476;5.700;2022-10-16T13:42:22;19.10;99.90
58582;DHT22;44361;51.476;5.700;2022-10-16T13:44:50;19.20;99.90
58582;DHT22;44361;51.476;5.700;2022-10-16T13:50:06;19.10;99.90
58582;DHT22;44361;51.476;5.700;2022-10-16T13:52:34;19.20;99.90
58582;DHT22;44361;51.476;5.700;2022-10-16T13:55:00;19.50;99.90
58582;DHT22;44361;51.476;5.700;2022-10-16T13:57:26;19.40;99.90
58582;DHT22;44361;51.476;5.700;2022-10-16T13:59:52;19.40;99.90
58582;DHT22;44361;51.476;5.700;2022-10-16T14:04:47;19.30;99.90
58582;DHT22;44361;51.476;5.700;2022-10-16T14:07:43;19.30;99.90
58582;DHT22;44361;51.476;5.700;2022-10-16T14:10:24;19.30;99.90
58582;DHT22;44361;51.476;5.700;2022-10-16T14:13:05;19.20;99.90
58582;DHT22;44361;51.476;5.700;2022-10-16T14:15:33;19.10;99.90
58582;DHT22;44361;51.476;5.700;2022-10-16T14:17:59;19.00;99.90
58582;DHT22;44361;51.476;5.700;2022-10-16T14:20:27;19.10;99.90
58582;DHT22;44361;51.476;5.700;2022-10-16T14:23:01;19.00;99.90
58582;DHT22;44361;51.476;5.700;2022-10-16T14:25:30;18.90;99.90
58582;DHT22;44361;51.476;5.700;2022-10-16T14:30:24;18.70;99.90
58582;DHT22;44361;51.476;5.700;2022-10-16T14:38:34;18.70;99.90
58582;DHT22;44361;51.476;5.700;2022-10-16T14:41:00;18.70;99.90
58582;DHT22;44361;51.476;5.700;2022-10-16T14:43:40;18.60;99.90
58582;DHT22;44361;51.476;5.700;2022-10-16T14:46:20;18.60;99.90
58582;DHT22;44361;51.476;5.700;2022-10-16T14:48:48;18.60;99.90
58582;DHT22;44361;51.476;5.700;2022-10-16T14:51:16;18.70;99.90
58582;DHT22;44361;51.476;5.700;2022-10-16T14:53:42;18.70;99.90
58582;DHT22;44361;51.476;5.700;2022-10-16T14:56:14;18.90;99.90
58582;DHT22;44361;51.476;5.700;2022-10-16T14:58:41;19.00;99.90
58582;DHT22;44361;51.476;5.700;2022-10-16T15:01:08;19.00;99.90
58582;DHT22;44361;51.476;5.700;2022-10-16T15:03:36;19.10;99.90
58582;DHT22;44361;51.476;5.700;2022-10-16T15:06:01;19.10;99.90
58582;DHT22;44361;51.476;5.700;2022-10-16T15:08:27;18.90;99.90
58582;DHT22;44361;51.476;5.700;2022-10-16T15:10:52;18.80;99.90
58582;DHT22;44361;51.476;5.700;2022-10-16T15:13:18;18.70;99.90
58582;DHT22;44361;51.476;5.700;2022-10-16T15:15:46;18.70;99.90
58582;DHT22;44361;51.476;5.700;2022-10-16T15:18:12;18.70;99.90
58582;DHT22;44361;51.476;5.700;2022-10-16T15:20:40;18.60;99.90
58582;DHT22;44361;51.476;5.700;2022-10-16T15:23:20;18.50;99.90
58582;DHT22;44361;51.476;5.700;2022-10-16T15:25:51;18.40;99.90
58582;DHT22;44361;51.476;5.700;2022-10-16T15:28:18;18.40;99.90
58582;DHT22;44361;51.476;5.700;2022-10-16T15:30:45;18.30;99.90
58582;DHT22;44361;51.476;5.700;2022-10-16T15:33:13;18.20;99.90
58582;DHT22;44361;51.476;5.700;2022-10-16T15:35:39;18.00;99.90
58582;DHT22;44361;51.476;5.700;2022-10-16T15:38:05;17.90;99.90
58582;DHT22;44361;51.476;5.700;2022-10-16T15:40:30;17.80;99.90
58582;DHT22;44361;51.476;5.700;2022-10-16T15:42:56;17.70;99.90
58582;DHT22;44361;51.476;5.700;2022-10-16T15:45:21;17.80;99.90
58582;DHT22;44361;51.476;5.700;2022-10-16T15:47:47;17.80;99.90
58582;DHT22;44361;51.476;5.700;2022-10-16T15:50:14;17.70;99.90
58582;DHT22;44361;51.476;5.700;2022-10-16T15:52:40;17.70;99.90
58582;DHT22;44361;51.476;5.700;2022-10-16T15:55:11;17.60;99.90
58582;DHT22;44361;51.476;5.700;2022-10-16T15:57:37;17.60;99.90
58582;DHT22;44361;51.476;5.700;2022-10-16T16:00:09;17.50;99.90
58582;DHT22;44361;51.476;5.700;2022-10-16T16:02:35;17.50;99.90
58582;DHT22;44361;51.476;5.700;2022-10-16T16:05:00;17.40;99.90
58582;DHT22;44361;51.476;5.700;2022-10-16T16:07:27;17.40;99.90
58582;DHT22;44361;51.476;5.700;2022-10-16T16:09:53;17.30;99.90
58582;DHT22;44361;51.476;5.700;2022-10-16T16:12:18;17.30;99.90
58582;DHT22;44361;51.476;5.700;2022-10-16T16:14:44;17.20;99.90
58582;DHT22;44361;51.476;5.700;2022-10-16T16:17:11;17.00;99.90
58582;DHT22;44361;51.476;5.700;2022-10-16T16:19:37;16.90;99.90
58582;DHT22;44361;51.476;5.700;2022-10-16T16:22:03;16.80;99.90
58582;DHT22;44361;51.476;5.700;2022-10-16T16:24:28;16.70;99.90
58582;DHT22;44361;51.476;5.700;2022-10-16T16:26:54;16.60;99.90
58582;DHT22;44361;51.476;5.700;2022-10-16T16:29:19;16.50;99.90
58582;DHT22;44361;51.476;5.700;2022-10-16T16:31:45;16.50;99.90
58582;DHT22;44361;51.476;5.700;2022-10-16T16:34:12;16.30;99.90
58582;DHT22;44361;51.476;5.700;2022-10-16T16:36:38;16.30;99.90
58582;DHT22;44361;51.476;5.700;2022-10-16T16:39:06;16.20;99.90
58582;DHT22;44361;51.476;5.700;2022-10-16T16:41:31;16.20;99.90
58582;DHT22;44361;51.476;5.700;2022-10-16T16:44:06;16.10;99.90
58582;DHT22;44361;51.476;5.700;2022-10-16T16:46:33;16.10;99.90
58582;DHT22;44361;51.476;5.700;2022-10-16T16:48:59;16.10;99.90
58582;DHT22;44361;51.476;5.700;2022-10-16T16:51:25;16.00;99.90
58582;DHT22;44361;51.476;5.700;2022-10-16T16:53:52;16.00;99.90
58582;DHT22;44361;51.476;5.700;2022-10-16T16:56:19;16.00;99.90
58582;DHT22;44361;51.476;5.700;2022-10-16T16:58:47;15.90;99.90
58582;DHT22;44361;51.476;5.700;2022-10-16T17:01:13;15.90;99.90
58582;DHT22;44361;51.476;5.700;2022-10-16T17:03:42;15.80;99.90
58582;DHT22;44361;51.476;5.700;2022-10-16T17:06:11;15.80;99.90